Amor, Minnesota
Current Conditions -  °F | °C
As of 8:54 AM on Saturday 25 Oct 2014 (Local Time) from KFFM Reporting Station
Clear Clear  
Wind Chill:   Ceiling: Unl
Heat Index:   Visibility: 10mi
Dew Point: -2°   Wind: 0mph
Humidity: 70%   Direction: NA
Pressure: 30.1"   Gusts: NA
Location:  46.3166°N, 95.7183°W
Report Text: KFFM 251354Z AUTO 00000KT 10SM CLR 03/M02 A3010 RMK AO2
Loading
Personal Weather Stations






























Interactive Weather Map New forecast layout! Learn more

10-Day Weather Forecast

Advertisements
Track Severe Weather on mobile